sensor_id;sensor_type;location;lat;lon;timestamp;P1;durP1;ratioP1;P2;durP2;ratioP2
29344;SDS011;16339;48.748;2.222;2023-09-07T00:02:15;7.03;;;4.65;;
29344;SDS011;16339;48.748;2.222;2023-09-07T00:04:43;12.93;;;5.22;;
29344;SDS011;16339;48.748;2.222;2023-09-07T00:07:15;8.68;;;4.90;;
29344;SDS011;16339;48.748;2.222;2023-09-07T00:09:43;9.25;;;4.97;;
29344;SDS011;16339;48.748;2.222;2023-09-07T00:12:13;6.22;;;4.30;;
29344;SDS011;16339;48.748;2.222;2023-09-07T00:14:42;8.43;;;4.43;;
29344;SDS011;16339;48.748;2.222;2023-09-07T00:17:11;6.68;;;4.47;;
29344;SDS011;16339;48.748;2.222;2023-09-07T00:19:40;6.70;;;4.40;;
29344;SDS011;16339;48.748;2.222;2023-09-07T00:22:09;8.95;;;4.70;;
29344;SDS011;16339;48.748;2.222;2023-09-07T00:24:40;11.40;;;4.20;;
29344;SDS011;16339;48.748;2.222;2023-09-07T00:27:10;9.38;;;4.53;;
29344;SDS011;16339;48.748;2.222;2023-09-07T00:29:38;12.30;;;4.88;;
29344;SDS011;16339;48.748;2.222;2023-09-07T00:32:07;9.10;;;4.68;;
29344;SDS011;16339;48.748;2.222;2023-09-07T00:34:38;9.48;;;4.40;;
29344;SDS011;16339;48.748;2.222;2023-09-07T00:37:07;10.10;;;4.40;;
29344;SDS011;16339;48.748;2.222;2023-09-07T00:39:36;6.38;;;4.32;;
29344;SDS011;16339;48.748;2.222;2023-09-07T00:42:07;9.63;;;4.72;;
29344;SDS011;16339;48.748;2.222;2023-09-07T00:44:36;9.18;;;3.90;;
29344;SDS011;16339;48.748;2.222;2023-09-07T00:47:05;9.45;;;4.60;;
29344;SDS011;16339;48.748;2.222;2023-09-07T00:49:34;8.13;;;4.20;;
29344;SDS011;16339;48.748;2.222;2023-09-07T00:52:03;7.25;;;4.00;;
29344;SDS011;16339;48.748;2.222;2023-09-07T00:54:33;9.57;;;4.70;;
29344;SDS011;16339;48.748;2.222;2023-09-07T00:57:03;11.23;;;4.78;;
29344;SDS011;16339;48.748;2.222;2023-09-07T00:59:35;6.65;;;4.30;;
29344;SDS011;16339;48.748;2.222;2023-09-07T01:02:07;6.13;;;4.47;;
29344;SDS011;16339;48.748;2.222;2023-09-07T01:04:38;6.40;;;4.40;;
29344;SDS011;16339;48.748;2.222;2023-09-07T01:07:09;8.85;;;4.68;;
29344;SDS011;16339;48.748;2.222;2023-09-07T01:09:46;5.70;;;4.22;;
29344;SDS011;16339;48.748;2.222;2023-09-07T01:12:22;7.95;;;4.07;;
29344;SDS011;16339;48.748;2.222;2023-09-07T01:14:50;9.00;;;4.40;;
29344;SDS011;16339;48.748;2.222;2023-09-07T01:17:19;6.28;;;4.05;;
29344;SDS011;16339;48.748;2.222;2023-09-07T01:19:48;7.93;;;4.68;;
29344;SDS011;16339;48.748;2.222;2023-09-07T01:22:20;10.90;;;5.82;;
29344;SDS011;16339;48.748;2.222;2023-09-07T01:24:50;8.77;;;4.15;;
29344;SDS011;16339;48.748;2.222;2023-09-07T01:27:21;5.37;;;3.90;;
29344;SDS011;16339;48.748;2.222;2023-09-07T01:29:52;8.70;;;4.57;;
29344;SDS011;16339;48.748;2.222;2023-09-07T01:32:21;7.03;;;4.38;;
29344;SDS011;16339;48.748;2.222;2023-09-07T01:34:51;7.85;;;4.10;;
29344;SDS011;16339;48.748;2.222;2023-09-07T01:37:27;11.27;;;4.45;;
29344;SDS011;16339;48.748;2.222;2023-09-07T01:39:57;6.75;;;4.47;;
29344;SDS011;16339;48.748;2.222;2023-09-07T01:42:28;6.90;;;4.18;;
29344;SDS011;16339;48.748;2.222;2023-09-07T01:44:57;10.40;;;4.40;;
29344;SDS011;16339;48.748;2.222;2023-09-07T01:47:26;10.05;;;4.40;;
29344;SDS011;16339;48.748;2.222;2023-09-07T01:49:54;10.90;;;4.32;;
29344;SDS011;16339;48.748;2.222;2023-09-07T01:52:29;8.65;;;4.68;;
29344;SDS011;16339;48.748;2.222;2023-09-07T01:54:57;7.07;;;4.47;;
29344;SDS011;16339;48.748;2.222;2023-09-07T01:57:26;9.07;;;4.57;;
29344;SDS011;16339;48.748;2.222;2023-09-07T01:59:57;7.28;;;4.43;;
29344;SDS011;16339;48.748;2.222;2023-09-07T02:02:31;10.00;;;4.32;;
29344;SDS011;16339;48.748;2.222;2023-09-07T02:05:00;7.43;;;4.53;;
29344;SDS011;16339;48.748;2.222;2023-09-07T02:07:35;9.00;;;5.00;;
29344;SDS011;16339;48.748;2.222;2023-09-07T02:10:07;6.45;;;4.22;;
29344;SDS011;16339;48.748;2.222;2023-09-07T02:12:41;10.20;;;4.40;;
29344;SDS011;16339;48.748;2.222;2023-09-07T02:15:18;10.25;;;5.13;;
29344;SDS011;16339;48.748;2.222;2023-09-07T02:17:48;7.78;;;4.55;;
29344;SDS011;16339;48.748;2.222;2023-09-07T02:20:17;9.48;;;4.68;;
29344;SDS011;16339;48.748;2.222;2023-09-07T02:22:52;12.07;;;4.43;;
29344;SDS011;16339;48.748;2.222;2023-09-07T02:25:26;9.10;;;4.93;;
29344;SDS011;16339;48.748;2.222;2023-09-07T02:27:55;7.95;;;4.93;;
29344;SDS011;16339;48.748;2.222;2023-09-07T02:30:31;9.57;;;4.65;;
29344;SDS011;16339;48.748;2.222;2023-09-07T02:33:05;11.80;;;4.82;;
29344;SDS011;16339;48.748;2.222;2023-09-07T02:35:40;6.90;;;4.47;;
29344;SDS011;16339;48.748;2.222;2023-09-07T02:38:12;9.82;;;4.82;;
29344;SDS011;16339;48.748;2.222;2023-09-07T02:40:42;6.45;;;4.53;;
29344;SDS011;16339;48.748;2.222;2023-09-07T02:43:12;9.77;;;4.63;;
29344;SDS011;16339;48.748;2.222;2023-09-07T02:45:42;8.52;;;5.07;;
29344;SDS011;16339;48.748;2.222;2023-09-07T02:48:11;8.38;;;4.80;;
29344;SDS011;16339;48.748;2.222;2023-09-07T02:50:40;7.53;;;4.53;;
29344;SDS011;16339;48.748;2.222;2023-09-07T02:53:13;8.55;;;4.15;;
29344;SDS011;16339;48.748;2.222;2023-09-07T02:55:41;9.00;;;4.68;;
29344;SDS011;16339;48.748;2.222;2023-09-07T02:58:10;9.00;;;4.72;;
29344;SDS011;16339;48.748;2.222;2023-09-07T03:00:49;13.00;;;4.55;;
29344;SDS011;16339;48.748;2.222;2023-09-07T03:03:18;9.27;;;4.70;;
29344;SDS011;16339;48.748;2.222;2023-09-07T03:05:49;9.57;;;4.63;;
29344;SDS011;16339;48.748;2.222;2023-09-07T03:08:20;7.38;;;4.97;;
29344;SDS011;16339;48.748;2.222;2023-09-07T03:10:52;9.88;;;4.90;;
29344;SDS011;16339;48.748;2.222;2023-09-07T03:13:20;9.73;;;4.53;;
29344;SDS011;16339;48.748;2.222;2023-09-07T03:15:52;9.73;;;4.47;;
29344;SDS011;16339;48.748;2.222;2023-09-07T03:18:21;7.00;;;4.18;;
29344;SDS011;16339;48.748;2.222;2023-09-07T03:20:54;9.38;;;4.95;;
29344;SDS011;16339;48.748;2.222;2023-09-07T03:23:26;12.40;;;4.32;;
29344;SDS011;16339;48.748;2.222;2023-09-07T03:25:55;10.75;;;4.68;;
29344;SDS011;16339;48.748;2.222;2023-09-07T03:28:29;12.57;;;5.20;;
29344;SDS011;16339;48.748;2.222;2023-09-07T03:30:59;8.32;;;4.63;;
29344;SDS011;16339;48.748;2.222;2023-09-07T03:33:31;6.05;;;4.70;;
29344;SDS011;16339;48.748;2.222;2023-09-07T03:36:00;12.75;;;4.43;;
29344;SDS011;16339;48.748;2.222;2023-09-07T03:38:31;10.30;;;5.13;;
29344;SDS011;16339;48.748;2.222;2023-09-07T03:41:06;13.20;;;5.00;;
29344;SDS011;16339;48.748;2.222;2023-09-07T03:43:35;10.27;;;4.63;;
29344;SDS011;16339;48.748;2.222;2023-09-07T03:46:06;10.45;;;5.63;;
29344;SDS011;16339;48.748;2.222;2023-09-07T03:48:36;7.63;;;5.03;;
29344;SDS011;16339;48.748;2.222;2023-09-07T03:51:11;7.97;;;5.13;;
29344;SDS011;16339;48.748;2.222;2023-09-07T03:53:44;8.15;;;4.88;;
29344;SDS011;16339;48.748;2.222;2023-09-07T03:56:13;11.07;;;4.75;;
29344;SDS011;16339;48.748;2.222;2023-09-07T03:58:45;10.02;;;5.32;;
29344;SDS011;16339;48.748;2.222;2023-09-07T04:01:18;9.80;;;5.40;;
29344;SDS011;16339;48.748;2.222;2023-09-07T04:03:47;10.00;;;5.05;;
29344;SDS011;16339;48.748;2.222;2023-09-07T04:06:15;11.68;;;4.53;;
29344;SDS011;16339;48.748;2.222;2023-09-07T04:08:54;12.85;;;5.05;;
29344;SDS011;16339;48.748;2.222;2023-09-07T04:11:23;10.05;;;4.90;;
29344;SDS011;16339;48.748;2.222;2023-09-07T04:13:54;12.60;;;4.93;;
29344;SDS011;16339;48.748;2.222;2023-09-07T04:16:23;8.52;;;5.07;;
29344;SDS011;16339;48.748;2.222;2023-09-07T04:18:52;9.82;;;5.00;;
29344;SDS011;16339;48.748;2.222;2023-09-07T04:21:24;9.40;;;4.85;;
29344;SDS011;16339;48.748;2.222;2023-09-07T04:23:58;17.73;;;5.20;;
29344;SDS011;16339;48.748;2.222;2023-09-07T04:26:27;12.65;;;4.75;;
29344;SDS011;16339;48.748;2.222;2023-09-07T04:28:56;12.35;;;5.32;;
29344;SDS011;16339;48.748;2.222;2023-09-07T04:31:25;18.70;;;5.07;;
29344;SDS011;16339;48.748;2.222;2023-09-07T04:33:54;8.43;;;5.38;;
29344;SDS011;16339;48.748;2.222;2023-09-07T04:36:23;11.55;;;5.00;;
29344;SDS011;16339;48.748;2.222;2023-09-07T04:38:52;11.52;;;5.25;;
29344;SDS011;16339;48.748;2.222;2023-09-07T04:41:25;13.85;;;5.28;;
29344;SDS011;16339;48.748;2.222;2023-09-07T04:43:54;9.35;;;5.78;;
29344;SDS011;16339;48.748;2.222;2023-09-07T04:46:22;12.90;;;5.88;;
29344;SDS011;16339;48.748;2.222;2023-09-07T04:48:51;10.85;;;5.32;;
29344;SDS011;16339;48.748;2.222;2023-09-07T04:51:20;10.85;;;5.10;;
29344;SDS011;16339;48.748;2.222;2023-09-07T04:53:53;9.80;;;5.05;;
29344;SDS011;16339;48.748;2.222;2023-09-07T04:56:26;13.73;;;5.03;;
29344;SDS011;16339;48.748;2.222;2023-09-07T04:58:58;9.77;;;5.13;;
29344;SDS011;16339;48.748;2.222;2023-09-07T05:01:30;12.00;;;5.20;;
29344;SDS011;16339;48.748;2.222;2023-09-07T05:03:59;21.20;;;5.25;;
29344;SDS011;16339;48.748;2.222;2023-09-07T05:06:30;12.32;;;5.38;;
29344;SDS011;16339;48.748;2.222;2023-09-07T05:09:02;11.63;;;5.25;;
29344;SDS011;16339;48.748;2.222;2023-09-07T05:11:34;13.27;;;4.72;;
29344;SDS011;16339;48.748;2.222;2023-09-07T05:14:09;9.02;;;4.80;;
29344;SDS011;16339;48.748;2.222;2023-09-07T05:16:40;8.68;;;4.82;;
29344;SDS011;16339;48.748;2.222;2023-09-07T05:19:10;8.88;;;4.43;;
29344;SDS011;16339;48.748;2.222;2023-09-07T05:21:39;9.23;;;4.93;;
29344;SDS011;16339;48.748;2.222;2023-09-07T05:24:08;8.48;;;5.68;;
29344;SDS011;16339;48.748;2.222;2023-09-07T05:26:39;12.18;;;5.57;;
29344;SDS011;16339;48.748;2.222;2023-09-07T05:29:10;15.00;;;5.90;;
29344;SDS011;16339;48.748;2.222;2023-09-07T05:31:42;11.13;;;6.00;;
29344;SDS011;16339;48.748;2.222;2023-09-07T05:34:11;15.02;;;5.60;;
29344;SDS011;16339;48.748;2.222;2023-09-07T05:36:40;15.05;;;5.55;;
29344;SDS011;16339;48.748;2.222;2023-09-07T05:39:09;20.35;;;6.00;;
29344;SDS011;16339;48.748;2.222;2023-09-07T05:41:41;18.50;;;6.25;;
29344;SDS011;16339;48.748;2.222;2023-09-07T05:44:10;17.98;;;6.65;;
29344;SDS011;16339;48.748;2.222;2023-09-07T05:46:40;18.90;;;6.22;;
29344;SDS011;16339;48.748;2.222;2023-09-07T05:49:09;17.30;;;6.25;;
29344;SDS011;16339;48.748;2.222;2023-09-07T05:51:38;11.13;;;5.13;;
29344;SDS011;16339;48.748;2.222;2023-09-07T05:54:08;10.90;;;5.80;;
29344;SDS011;16339;48.748;2.222;2023-09-07T05:56:37;15.32;;;6.20;;
29344;SDS011;16339;48.748;2.222;2023-09-07T05:59:10;14.00;;;6.10;;
29344;SDS011;16339;48.748;2.222;2023-09-07T06:01:42;20.17;;;6.97;;
29344;SDS011;16339;48.748;2.222;2023-09-07T06:04:13;13.40;;;5.93;;
29344;SDS011;16339;48.748;2.222;2023-09-07T06:06:41;15.60;;;6.18;;
29344;SDS011;16339;48.748;2.222;2023-09-07T06:09:10;18.67;;;6.07;;
29344;SDS011;16339;48.748;2.222;2023-09-07T06:11:39;14.23;;;6.10;;
29344;SDS011;16339;48.748;2.222;2023-09-07T06:14:14;13.15;;;5.53;;
29344;SDS011;16339;48.748;2.222;2023-09-07T06:16:43;16.02;;;6.10;;
29344;SDS011;16339;48.748;2.222;2023-09-07T06:19:12;16.20;;;5.85;;
29344;SDS011;16339;48.748;2.222;2023-09-07T06:21:43;15.65;;;5.63;;
29344;SDS011;16339;48.748;2.222;2023-09-07T06:24:15;14.40;;;5.70;;
29344;SDS011;16339;48.748;2.222;2023-09-07T06:26:47;14.10;;;5.95;;
29344;SDS011;16339;48.748;2.222;2023-09-07T06:29:18;11.73;;;5.35;;
29344;SDS011;16339;48.748;2.222;2023-09-07T06:31:50;19.55;;;5.55;;
29344;SDS011;16339;48.748;2.222;2023-09-07T06:34:18;10.68;;;6.13;;
29344;SDS011;16339;48.748;2.222;2023-09-07T06:36:47;17.05;;;5.32;;
29344;SDS011;16339;48.748;2.222;2023-09-07T06:39:16;14.32;;;6.75;;
29344;SDS011;16339;48.748;2.222;2023-09-07T06:41:45;15.30;;;6.38;;
29344;SDS011;16339;48.748;2.222;2023-09-07T06:44:14;19.35;;;6.50;;
29344;SDS011;16339;48.748;2.222;2023-09-07T06:46:48;12.50;;;6.30;;
29344;SDS011;16339;48.748;2.222;2023-09-07T06:49:17;14.38;;;6.25;;
29344;SDS011;16339;48.748;2.222;2023-09-07T06:51:54;18.42;;;7.53;;
29344;SDS011;16339;48.748;2.222;2023-09-07T06:54:23;16.30;;;6.80;;
29344;SDS011;16339;48.748;2.222;2023-09-07T06:56:55;16.00;;;6.63;;
29344;SDS011;16339;48.748;2.222;2023-09-07T06:59:29;12.85;;;6.15;;
29344;SDS011;16339;48.748;2.222;2023-09-07T07:02:05;15.45;;;6.32;;
29344;SDS011;16339;48.748;2.222;2023-09-07T07:04:35;17.63;;;7.15;;
29344;SDS011;16339;48.748;2.222;2023-09-07T07:07:08;18.80;;;7.15;;
29344;SDS011;16339;48.748;2.222;2023-09-07T07:12:10;16.95;;;6.57;;
29344;SDS011;16339;48.748;2.222;2023-09-07T07:14:45;19.50;;;6.82;;
29344;SDS011;16339;48.748;2.222;2023-09-07T07:17:13;15.43;;;6.60;;
29344;SDS011;16339;48.748;2.222;2023-09-07T07:19:45;10.93;;;6.43;;
29344;SDS011;16339;48.748;2.222;2023-09-07T07:22:14;15.82;;;6.53;;
29344;SDS011;16339;48.748;2.222;2023-09-07T07:24:43;17.80;;;7.32;;
29344;SDS011;16339;48.748;2.222;2023-09-07T07:27:11;14.90;;;6.53;;
29344;SDS011;16339;48.748;2.222;2023-09-07T07:29:47;17.13;;;6.85;;
29344;SDS011;16339;48.748;2.222;2023-09-07T07:32:20;14.48;;;6.82;;
29344;SDS011;16339;48.748;2.222;2023-09-07T07:34:50;15.70;;;7.20;;
29344;SDS011;16339;48.748;2.222;2023-09-07T07:37:23;15.35;;;6.90;;
29344;SDS011;16339;48.748;2.222;2023-09-07T07:39:52;15.43;;;7.18;;
29344;SDS011;16339;48.748;2.222;2023-09-07T07:42:27;9.80;;;6.35;;
29344;SDS011;16339;48.748;2.222;2023-09-07T07:45:03;12.18;;;6.47;;
29344;SDS011;16339;48.748;2.222;2023-09-07T07:47:42;18.30;;;7.05;;
29344;SDS011;16339;48.748;2.222;2023-09-07T07:50:16;14.57;;;7.65;;
29344;SDS011;16339;48.748;2.222;2023-09-07T07:52:49;20.20;;;7.13;;
29344;SDS011;16339;48.748;2.222;2023-09-07T07:55:23;15.63;;;6.65;;
29344;SDS011;16339;48.748;2.222;2023-09-07T07:57:55;10.88;;;7.07;;
29344;SDS011;16339;48.748;2.222;2023-09-07T08:00:31;12.27;;;6.75;;
29344;SDS011;16339;48.748;2.222;2023-09-07T08:03:00;15.63;;;7.38;;
29344;SDS011;16339;48.748;2.222;2023-09-07T08:05:31;17.40;;;7.40;;
29344;SDS011;16339;48.748;2.222;2023-09-07T08:08:00;16.85;;;7.22;;
29344;SDS011;16339;48.748;2.222;2023-09-07T08:10:34;15.25;;;7.50;;
29344;SDS011;16339;48.748;2.222;2023-09-07T08:13:13;21.27;;;9.05;;
29344;SDS011;16339;48.748;2.222;2023-09-07T08:15:51;24.33;;;9.32;;
29344;SDS011;16339;48.748;2.222;2023-09-07T08:18:24;19.27;;;8.32;;
29344;SDS011;16339;48.748;2.222;2023-09-07T08:23:32;17.20;;;7.45;;
29344;SDS011;16339;48.748;2.222;2023-09-07T08:26:01;15.07;;;7.15;;
29344;SDS011;16339;48.748;2.222;2023-09-07T08:28:30;14.73;;;6.95;;
29344;SDS011;16339;48.748;2.222;2023-09-07T08:31:07;23.90;;;6.97;;
29344;SDS011;16339;48.748;2.222;2023-09-07T08:33:48;16.23;;;6.50;;
29344;SDS011;16339;48.748;2.222;2023-09-07T08:36:22;15.00;;;6.63;;
29344;SDS011;16339;48.748;2.222;2023-09-07T08:39:00;12.43;;;6.35;;
29344;SDS011;16339;48.748;2.222;2023-09-07T08:41:34;14.20;;;6.13;;
29344;SDS011;16339;48.748;2.222;2023-09-07T08:44:12;15.00;;;5.80;;
29344;SDS011;16339;48.748;2.222;2023-09-07T08:46:53;16.55;;;6.32;;
29344;SDS011;16339;48.748;2.222;2023-09-07T08:49:23;12.10;;;6.50;;
29344;SDS011;16339;48.748;2.222;2023-09-07T08:51:53;17.05;;;6.15;;
29344;SDS011;16339;48.748;2.222;2023-09-07T08:57:02;17.48;;;6.00;;
29344;SDS011;16339;48.748;2.222;2023-09-07T08:59:39;17.65;;;5.65;;
29344;SDS011;16339;48.748;2.222;2023-09-07T09:02:17;16.15;;;5.95;;
29344;SDS011;16339;48.748;2.222;2023-09-07T09:04:55;14.82;;;6.30;;
29344;SDS011;16339;48.748;2.222;2023-09-07T09:07:31;17.53;;;5.70;;
29344;SDS011;16339;48.748;2.222;2023-09-07T09:10:17;18.52;;;5.93;;
29344;SDS011;16339;48.748;2.222;2023-09-07T09:12:48;11.90;;;5.63;;
29344;SDS011;16339;48.748;2.222;2023-09-07T09:15:27;14.05;;;5.45;;
29344;SDS011;16339;48.748;2.222;2023-09-07T09:18:11;15.75;;;5.75;;
29344;SDS011;16339;48.748;2.222;2023-09-07T09:20:46;13.02;;;6.10;;
29344;SDS011;16339;48.748;2.222;2023-09-07T09:23:15;20.23;;;6.78;;
29344;SDS011;16339;48.748;2.222;2023-09-07T09:25:49;10.60;;;5.63;;
29344;SDS011;16339;48.748;2.222;2023-09-07T09:28:18;11.60;;;5.70;;
29344;SDS011;16339;48.748;2.222;2023-09-07T09:30:51;12.82;;;5.90;;
29344;SDS011;16339;48.748;2.222;2023-09-07T09:33:29;13.38;;;6.20;;
29344;SDS011;16339;48.748;2.222;2023-09-07T09:35:59;12.43;;;5.90;;
29344;SDS011;16339;48.748;2.222;2023-09-07T09:38:29;20.42;;;5.30;;
29344;SDS011;16339;48.748;2.222;2023-09-07T09:40:59;9.90;;;5.30;;
29344;SDS011;16339;48.748;2.222;2023-09-07T09:43:36;10.20;;;5.20;;
29344;SDS011;16339;48.748;2.222;2023-09-07T09:46:08;16.85;;;5.55;;
29344;SDS011;16339;48.748;2.222;2023-09-07T09:48:45;18.80;;;5.60;;
29344;SDS011;16339;48.748;2.222;2023-09-07T09:51:27;13.50;;;5.72;;
29344;SDS011;16339;48.748;2.222;2023-09-07T09:54:01;17.58;;;5.88;;
29344;SDS011;16339;48.748;2.222;2023-09-07T09:56:41;15.35;;;5.88;;
29344;SDS011;16339;48.748;2.222;2023-09-07T09:59:16;16.35;;;6.40;;
29344;SDS011;16339;48.748;2.222;2023-09-07T10:01:52;16.55;;;6.78;;
29344;SDS011;16339;48.748;2.222;2023-09-07T10:07:12;12.45;;;6.30;;
29344;SDS011;16339;48.748;2.222;2023-09-07T10:09:45;19.20;;;6.63;;
29344;SDS011;16339;48.748;2.222;2023-09-07T10:12:16;13.07;;;6.68;;
29344;SDS011;16339;48.748;2.222;2023-09-07T10:14:55;17.00;;;7.32;;
29344;SDS011;16339;48.748;2.222;2023-09-07T10:17:24;21.45;;;8.18;;
29344;SDS011;16339;48.748;2.222;2023-09-07T10:23:01;17.65;;;6.60;;
29344;SDS011;16339;48.748;2.222;2023-09-07T10:25:39;10.65;;;5.78;;
29344;SDS011;16339;48.748;2.222;2023-09-07T10:31:03;12.57;;;5.90;;
29344;SDS011;16339;48.748;2.222;2023-09-07T10:33:33;12.40;;;5.28;;
29344;SDS011;16339;48.748;2.222;2023-09-07T10:36:08;13.68;;;5.63;;
29344;SDS011;16339;48.748;2.222;2023-09-07T10:38:53;16.17;;;5.50;;
29344;SDS011;16339;48.748;2.222;2023-09-07T10:41:42;12.68;;;5.95;;
29344;SDS011;16339;48.748;2.222;2023-09-07T10:44:18;17.02;;;5.93;;
29344;SDS011;16339;48.748;2.222;2023-09-07T10:47:08;16.60;;;5.78;;
29344;SDS011;16339;48.748;2.222;2023-09-07T10:49:48;10.52;;;5.72;;
29344;SDS011;16339;48.748;2.222;2023-09-07T10:52:31;14.30;;;5.18;;
29344;SDS011;16339;48.748;2.222;2023-09-07T10:55:18;15.73;;;5.43;;
29344;SDS011;16339;48.748;2.222;2023-09-07T10:57:55;19.20;;;5.68;;
29344;SDS011;16339;48.748;2.222;2023-09-07T11:00:29;15.57;;;5.85;;
29344;SDS011;16339;48.748;2.222;2023-09-07T11:03:06;23.27;;;5.80;;
29344;SDS011;16339;48.748;2.222;2023-09-07T11:05:40;17.65;;;5.43;;
29344;SDS011;16339;48.748;2.222;2023-09-07T11:08:31;16.83;;;5.47;;
29344;SDS011;16339;48.748;2.222;2023-09-07T11:11:02;9.27;;;5.32;;
29344;SDS011;16339;48.748;2.222;2023-09-07T11:13:35;11.70;;;5.80;;
29344;SDS011;16339;48.748;2.222;2023-09-07T11:16:09;16.85;;;5.38;;
29344;SDS011;16339;48.748;2.222;2023-09-07T11:18:44;13.00;;;5.07;;
29344;SDS011;16339;48.748;2.222;2023-09-07T11:21:14;9.35;;;4.93;;
29344;SDS011;16339;48.748;2.222;2023-09-07T11:23:50;18.85;;;5.00;;
29344;SDS011;16339;48.748;2.222;2023-09-07T11:26:39;10.90;;;4.55;;
29344;SDS011;16339;48.748;2.222;2023-09-07T11:29:16;15.07;;;5.43;;
29344;SDS011;16339;48.748;2.222;2023-09-07T11:32:04;17.55;;;5.35;;
29344;SDS011;16339;48.748;2.222;2023-09-07T11:34:49;10.38;;;5.60;;
29344;SDS011;16339;48.748;2.222;2023-09-07T11:37:26;16.48;;;6.05;;
29344;SDS011;16339;48.748;2.222;2023-09-07T11:40:21;13.57;;;5.38;;
29344;SDS011;16339;48.748;2.222;2023-09-07T11:42:53;14.35;;;5.93;;
29344;SDS011;16339;48.748;2.222;2023-09-07T11:45:30;13.50;;;5.40;;
29344;SDS011;16339;48.748;2.222;2023-09-07T11:48:08;12.77;;;6.05;;
29344;SDS011;16339;48.748;2.222;2023-09-07T11:50:51;15.07;;;4.97;;
29344;SDS011;16339;48.748;2.222;2023-09-07T11:53:24;12.00;;;5.57;;
29344;SDS011;16339;48.748;2.222;2023-09-07T11:56:03;16.02;;;6.05;;
29344;SDS011;16339;48.748;2.222;2023-09-07T11:58:35;15.40;;;6.22;;
29344;SDS011;16339;48.748;2.222;2023-09-07T12:01:27;20.02;;;5.80;;
29344;SDS011;16339;48.748;2.222;2023-09-07T12:03:58;16.73;;;5.38;;
29344;SDS011;16339;48.748;2.222;2023-09-07T12:09:06;18.30;;;6.05;;
29344;SDS011;16339;48.748;2.222;2023-09-07T12:12:04;14.93;;;5.93;;
29344;SDS011;16339;48.748;2.222;2023-09-07T12:14:43;10.85;;;5.22;;
29344;SDS011;16339;48.748;2.222;2023-09-07T12:17:36;16.80;;;5.45;;
29344;SDS011;16339;48.748;2.222;2023-09-07T12:20:29;11.57;;;5.57;;
29344;SDS011;16339;48.748;2.222;2023-09-07T12:23:04;12.23;;;5.05;;
29344;SDS011;16339;48.748;2.222;2023-09-07T12:25:50;9.70;;;5.20;;
29344;SDS011;16339;48.748;2.222;2023-09-07T12:28:25;14.27;;;5.55;;
29344;SDS011;16339;48.748;2.222;2023-09-07T12:31:00;14.15;;;5.53;;
29344;SDS011;16339;48.748;2.222;2023-09-07T12:33:42;14.55;;;5.15;;
29344;SDS011;16339;48.748;2.222;2023-09-07T12:36:17;12.38;;;5.63;;
29344;SDS011;16339;48.748;2.222;2023-09-07T12:38:58;15.15;;;5.43;;
29344;SDS011;16339;48.748;2.222;2023-09-07T12:41:37;9.63;;;5.25;;
29344;SDS011;16339;48.748;2.222;2023-09-07T12:44:33;16.52;;;5.68;;
29344;SDS011;16339;48.748;2.222;2023-09-07T12:47:03;16.88;;;5.60;;
29344;SDS011;16339;48.748;2.222;2023-09-07T12:49:42;14.88;;;5.72;;
29344;SDS011;16339;48.748;2.222;2023-09-07T12:52:18;17.27;;;5.43;;
29344;SDS011;16339;48.748;2.222;2023-09-07T12:55:03;11.73;;;4.97;;
29344;SDS011;16339;48.748;2.222;2023-09-07T12:57:54;14.48;;;5.35;;
29344;SDS011;16339;48.748;2.222;2023-09-07T13:03:46;10.20;;;4.90;;
29344;SDS011;16339;48.748;2.222;2023-09-07T13:12:56;11.52;;;4.97;;
29344;SDS011;16339;48.748;2.222;2023-09-07T13:16:06;11.63;;;4.78;;
29344;SDS011;16339;48.748;2.222;2023-09-07T13:19:24;14.65;;;5.03;;
29344;SDS011;16339;48.748;2.222;2023-09-07T13:22:18;22.30;;;4.65;;
29344;SDS011;16339;48.748;2.222;2023-09-07T13:28:04;18.92;;;4.75;;
29344;SDS011;16339;48.748;2.222;2023-09-07T13:31:18;16.33;;;4.78;;
29344;SDS011;16339;48.748;2.222;2023-09-07T13:41:28;15.60;;;4.57;;
29344;SDS011;16339;48.748;2.222;2023-09-07T14:01:03;17.17;;;4.72;;
29344;SDS011;16339;48.748;2.222;2023-09-07T14:14:42;9.55;;;4.20;;
29344;SDS011;16339;48.748;2.222;2023-09-07T14:17:18;15.30;;;4.28;;
29344;SDS011;16339;48.748;2.222;2023-09-07T14:20:21;9.63;;;3.70;;
29344;SDS011;16339;48.748;2.222;2023-09-07T14:23:30;8.18;;;3.72;;
29344;SDS011;16339;48.748;2.222;2023-09-07T14:26:26;9.48;;;3.75;;
29344;SDS011;16339;48.748;2.222;2023-09-07T14:29:52;7.60;;;3.80;;
29344;SDS011;16339;48.748;2.222;2023-09-07T14:35:22;14.05;;;4.47;;
29344;SDS011;16339;48.748;2.222;2023-09-07T14:38:03;7.50;;;3.58;;
29344;SDS011;16339;48.748;2.222;2023-09-07T14:41:16;8.00;;;3.42;;
29344;SDS011;16339;48.748;2.222;2023-09-07T14:47:08;6.68;;;3.50;;
29344;SDS011;16339;48.748;2.222;2023-09-07T14:49:56;12.27;;;3.83;;
29344;SDS011;16339;48.748;2.222;2023-09-07T14:52:42;8.07;;;3.85;;
29344;SDS011;16339;48.748;2.222;2023-09-07T14:55:53;18.60;;;3.45;;
29344;SDS011;16339;48.748;2.222;2023-09-07T14:58:40;13.23;;;3.30;;
29344;SDS011;16339;48.748;2.222;2023-09-07T15:01:21;8.68;;;4.32;;
29344;SDS011;16339;48.748;2.222;2023-09-07T15:04:20;9.95;;;3.83;;
29344;SDS011;16339;48.748;2.222;2023-09-07T15:07:22;7.85;;;3.28;;
29344;SDS011;16339;48.748;2.222;2023-09-07T15:10:05;5.65;;;3.17;;
29344;SDS011;16339;48.748;2.222;2023-09-07T15:13:59;6.03;;;3.22;;
29344;SDS011;16339;48.748;2.222;2023-09-07T15:16:06;11.07;;;3.58;;
29344;SDS011;16339;48.748;2.222;2023-09-07T15:18:49;13.13;;;3.70;;
29344;SDS011;16339;48.748;2.222;2023-09-07T15:21:32;9.77;;;3.08;;
29344;SDS011;16339;48.748;2.222;2023-09-07T15:25:07;4.93;;;3.03;;
29344;SDS011;16339;48.748;2.222;2023-09-07T15:27:48;8.70;;;2.83;;
29344;SDS011;16339;48.748;2.222;2023-09-07T15:30:57;15.52;;;3.00;;
29344;SDS011;16339;48.748;2.222;2023-09-07T15:37:06;4.35;;;3.55;;
29344;SDS011;16339;48.748;2.222;2023-09-07T15:43:46;5.45;;;3.20;;
29344;SDS011;16339;48.748;2.222;2023-09-07T15:46:45;8.07;;;3.80;;
29344;SDS011;16339;48.748;2.222;2023-09-07T15:49:58;5.30;;;3.33;;
29344;SDS011;16339;48.748;2.222;2023-09-07T16:02:22;7.07;;;3.15;;
29344;SDS011;16339;48.748;2.222;2023-09-07T16:05:05;5.30;;;3.20;;
29344;SDS011;16339;48.748;2.222;2023-09-07T16:11:20;12.60;;;3.05;;
29344;SDS011;16339;48.748;2.222;2023-09-07T16:26:07;9.45;;;3.22;;
29344;SDS011;16339;48.748;2.222;2023-09-07T16:32:30;21.35;;;3.50;;
29344;SDS011;16339;48.748;2.222;2023-09-07T16:51:36;8.98;;;3.15;;
29344;SDS011;16339;48.748;2.222;2023-09-07T16:54:47;11.18;;;2.88;;
29344;SDS011;16339;48.748;2.222;2023-09-07T16:57:31;6.18;;;2.95;;
29344;SDS011;16339;48.748;2.222;2023-09-07T17:00:20;6.72;;;2.90;;
29344;SDS011;16339;48.748;2.222;2023-09-07T17:03:02;7.20;;;2.72;;
29344;SDS011;16339;48.748;2.222;2023-09-07T17:05:40;3.63;;;2.80;;
29344;SDS011;16339;48.748;2.222;2023-09-07T17:08:29;4.57;;;2.50;;
29344;SDS011;16339;48.748;2.222;2023-09-07T17:11:16;7.07;;;2.88;;
29344;SDS011;16339;48.748;2.222;2023-09-07T17:13:45;4.97;;;2.53;;
29344;SDS011;16339;48.748;2.222;2023-09-07T17:16:14;3.95;;;3.00;;
29344;SDS011;16339;48.748;2.222;2023-09-07T17:18:58;6.68;;;2.80;;
29344;SDS011;16339;48.748;2.222;2023-09-07T17:21:30;6.35;;;2.92;;
29344;SDS011;16339;48.748;2.222;2023-09-07T17:23:59;6.20;;;2.75;;
29344;SDS011;16339;48.748;2.222;2023-09-07T17:26:28;7.30;;;2.33;;
29344;SDS011;16339;48.748;2.222;2023-09-07T17:28:57;4.68;;;2.97;;
29344;SDS011;16339;48.748;2.222;2023-09-07T17:31:25;5.82;;;2.50;;
29344;SDS011;16339;48.748;2.222;2023-09-07T17:33:54;6.20;;;2.90;;
29344;SDS011;16339;48.748;2.222;2023-09-07T17:36:23;6.32;;;3.05;;